sensor_id;sensor_type;location;lat;lon;timestamp;pressure;altitude;pressure_sealevel;temperature;humidity
66176;BME280;52977;44.816;20.538;2022-07-29T00:00:08;99673.69;;;24.70;85.72
66176;BME280;52977;44.816;20.538;2022-07-29T00:02:34;99657.81;;;24.67;84.90
66176;BME280;52977;44.816;20.538;2022-07-29T00:05:00;99676.84;;;24.72;86.94
66176;BME280;52977;44.816;20.538;2022-07-29T00:07:26;99663.31;;;24.71;86.77
66176;BME280;52977;44.816;20.538;2022-07-29T00:09:52;99682.59;;;24.58;88.33
66176;BME280;52977;44.816;20.538;2022-07-29T00:12:22;99674.66;;;24.56;88.28
66176;BME280;52977;44.816;20.538;2022-07-29T00:14:48;99659.16;;;24.52;88.88
66176;BME280;52977;44.816;20.538;2022-07-29T00:17:14;99671.00;;;24.63;87.96
66176;BME280;52977;44.816;20.538;2022-07-29T00:19:40;99670.06;;;24.73;87.74
66176;BME280;52977;44.816;20.538;2022-07-29T00:22:05;99671.56;;;24.47;89.45
66176;BME280;52977;44.816;20.538;2022-07-29T00:24:31;99652.97;;;24.37;89.41
66176;BME280;52977;44.816;20.538;2022-07-29T00:26:56;99673.66;;;24.39;90.74
66176;BME280;52977;44.816;20.538;2022-07-29T00:29:22;99670.41;;;24.45;90.18
66176;BME280;52977;44.816;20.538;2022-07-29T00:31:48;99668.22;;;24.60;89.18
66176;BME280;52977;44.816;20.538;2022-07-29T00:34:14;99661.81;;;24.63;89.07
66176;BME280;52977;44.816;20.538;2022-07-29T00:36:58;99673.47;;;24.54;90.00
66176;BME280;52977;44.816;20.538;2022-07-29T00:39:24;99662.84;;;24.45;90.58
66176;BME280;52977;44.816;20.538;2022-07-29T00:41:49;99638.25;;;24.36;90.78
66176;BME280;52977;44.816;20.538;2022-07-29T00:44:15;99650.09;;;24.44;90.91
66176;BME280;52977;44.816;20.538;2022-07-29T00:46:41;99651.84;;;24.31;92.17
66176;BME280;52977;44.816;20.538;2022-07-29T00:49:07;99654.50;;;24.42;91.24
66176;BME280;52977;44.816;20.538;2022-07-29T00:51:36;99636.38;;;24.26;91.73
66176;BME280;52977;44.816;20.538;2022-07-29T00:54:02;99646.53;;;24.44;91.14
66176;BME280;52977;44.816;20.538;2022-07-29T00:56:30;99650.75;;;24.25;94.16
66176;BME280;52977;44.816;20.538;2022-07-29T00:58:58;99644.09;;;24.15;94.68
66176;BME280;52977;44.816;20.538;2022-07-29T01:01:24;99527.00;;;23.46;94.16
66176;BME280;52977;44.816;20.538;2022-07-29T01:03:50;99635.84;;;24.35;92.68
66176;BME280;52977;44.816;20.538;2022-07-29T01:06:17;99648.66;;;24.32;93.34
66176;BME280;52977;44.816;20.538;2022-07-29T01:08:46;99634.44;;;24.19;94.03
66176;BME280;52977;44.816;20.538;2022-07-29T01:11:13;99634.97;;;24.11;95.14
66176;BME280;52977;44.816;20.538;2022-07-29T01:13:40;99641.59;;;24.24;93.61
66176;BME280;52977;44.816;20.538;2022-07-29T01:16:23;99606.97;;;24.21;92.66
66176;BME280;52977;44.816;20.538;2022-07-29T01:18:54;99619.78;;;24.46;91.71
66176;BME280;52977;44.816;20.538;2022-07-29T01:21:51;99631.03;;;24.39;92.86
66176;BME280;52977;44.816;20.538;2022-07-29T01:24:33;99587.66;;;24.03;93.00
66176;BME280;52977;44.816;20.538;2022-07-29T01:27:41;99627.13;;;24.33;92.44
66176;BME280;52977;44.816;20.538;2022-07-29T01:30:13;99563.44;;;23.97;92.51
66176;BME280;52977;44.816;20.538;2022-07-29T01:32:39;99610.44;;;24.29;91.40
66176;BME280;52977;44.816;20.538;2022-07-29T01:35:12;99614.38;;;24.32;91.88
66176;BME280;52977;44.816;20.538;2022-07-29T01:40:27;99611.13;;;24.37;90.66
66176;BME280;52977;44.816;20.538;2022-07-29T01:43:02;99615.97;;;24.33;90.84
66176;BME280;52977;44.816;20.538;2022-07-29T01:45:40;99615.53;;;24.38;89.65
66176;BME280;52977;44.816;20.538;2022-07-29T01:48:15;99611.06;;;24.40;89.21
66176;BME280;52977;44.816;20.538;2022-07-29T01:51:01;99610.28;;;24.40;89.03
66176;BME280;52977;44.816;20.538;2022-07-29T01:53:36;99602.88;;;24.30;88.44
66176;BME280;52977;44.816;20.538;2022-07-29T01:56:04;99606.31;;;24.41;87.99
66176;BME280;52977;44.816;20.538;2022-07-29T01:58:32;99612.66;;;24.42;88.05
66176;BME280;52977;44.816;20.538;2022-07-29T02:01:01;99595.28;;;24.30;87.73
66176;BME280;52977;44.816;20.538;2022-07-29T02:03:28;99630.22;;;24.42;87.50
66176;BME280;52977;44.816;20.538;2022-07-29T02:05:56;99586.72;;;24.14;87.88
66176;BME280;52977;44.816;20.538;2022-07-29T02:08:23;99613.16;;;24.36;88.21
66176;BME280;52977;44.816;20.538;2022-07-29T02:10:51;99614.81;;;24.30;88.70
66176;BME280;52977;44.816;20.538;2022-07-29T02:13:20;99604.09;;;24.25;88.02
66176;BME280;52977;44.816;20.538;2022-07-29T02:15:48;99616.75;;;24.33;87.90
66176;BME280;52977;44.816;20.538;2022-07-29T02:18:17;99604.41;;;24.34;87.74
66176;BME280;52977;44.816;20.538;2022-07-29T02:20:46;99553.59;;;23.88;87.87
66176;BME280;52977;44.816;20.538;2022-07-29T02:23:15;99613.22;;;24.29;88.19
66176;BME280;52977;44.816;20.538;2022-07-29T02:25:48;99605.75;;;24.22;87.98
66176;BME280;52977;44.816;20.538;2022-07-29T02:28:15;99555.59;;;23.88;87.91
66176;BME280;52977;44.816;20.538;2022-07-29T02:30:42;99574.88;;;24.06;87.72
66176;BME280;52977;44.816;20.538;2022-07-29T02:33:10;99619.63;;;24.26;88.06
66176;BME280;52977;44.816;20.538;2022-07-29T02:35:38;99602.66;;;24.17;88.17
66176;BME280;52977;44.816;20.538;2022-07-29T02:38:06;99604.91;;;24.26;88.24
66176;BME280;52977;44.816;20.538;2022-07-29T02:40:51;99603.31;;;24.25;88.17
66176;BME280;52977;44.816;20.538;2022-07-29T02:43:19;99597.88;;;24.14;88.31
66176;BME280;52977;44.816;20.538;2022-07-29T02:45:47;99590.22;;;23.87;88.01
66176;BME280;52977;44.816;20.538;2022-07-29T02:48:16;99602.59;;;24.20;87.87
66176;BME280;52977;44.816;20.538;2022-07-29T02:50:48;99605.03;;;24.15;88.02
66176;BME280;52977;44.816;20.538;2022-07-29T02:53:18;99587.69;;;24.00;87.84
66176;BME280;52977;44.816;20.538;2022-07-29T02:55:56;99599.09;;;24.13;87.79
66176;BME280;52977;44.816;20.538;2022-07-29T02:58:40;99597.09;;;24.13;87.72
66176;BME280;52977;44.816;20.538;2022-07-29T03:01:15;99597.63;;;24.04;88.48
66176;BME280;52977;44.816;20.538;2022-07-29T03:03:44;99605.03;;;24.15;88.23
66176;BME280;52977;44.816;20.538;2022-07-29T03:06:12;99583.75;;;23.97;88.22
66176;BME280;52977;44.816;20.538;2022-07-29T03:08:39;99606.63;;;24.16;87.77
66176;BME280;52977;44.816;20.538;2022-07-29T03:11:05;99477.00;;;23.31;87.28
66176;BME280;52977;44.816;20.538;2022-07-29T03:13:31;99597.56;;;24.08;87.17
66176;BME280;52977;44.816;20.538;2022-07-29T03:15:57;99614.56;;;24.17;86.88
66176;BME280;52977;44.816;20.538;2022-07-29T03:18:24;99614.59;;;24.14;87.13
66176;BME280;52977;44.816;20.538;2022-07-29T03:20:49;99600.41;;;24.04;87.05
66176;BME280;52977;44.816;20.538;2022-07-29T03:23:19;99607.47;;;24.13;86.93
66176;BME280;52977;44.816;20.538;2022-07-29T03:25:48;99611.47;;;24.12;86.71
66176;BME280;52977;44.816;20.538;2022-07-29T03:28:17;99617.41;;;24.14;86.64
66176;BME280;52977;44.816;20.538;2022-07-29T03:30:43;99623.31;;;24.19;86.39
66176;BME280;52977;44.816;20.538;2022-07-29T03:33:08;99620.56;;;24.16;86.76
66176;BME280;52977;44.816;20.538;2022-07-29T03:35:34;99624.56;;;24.15;86.87
66176;BME280;52977;44.816;20.538;2022-07-29T03:37:59;99610.72;;;24.08;86.95
66176;BME280;52977;44.816;20.538;2022-07-29T03:40:30;99617.88;;;24.09;87.11
66176;BME280;52977;44.816;20.538;2022-07-29T03:42:59;99622.56;;;24.15;87.15
66176;BME280;52977;44.816;20.538;2022-07-29T03:45:26;99636.97;;;24.10;87.66
66176;BME280;52977;44.816;20.538;2022-07-29T03:48:00;99633.00;;;24.08;88.21
66176;BME280;52977;44.816;20.538;2022-07-29T03:50:28;99634.63;;;24.05;88.03
66176;BME280;52977;44.816;20.538;2022-07-29T03:52:54;99638.63;;;24.04;88.29
66176;BME280;52977;44.816;20.538;2022-07-29T03:55:20;99637.00;;;24.06;88.06
66176;BME280;52977;44.816;20.538;2022-07-29T03:57:46;99620.88;;;23.91;87.80
66176;BME280;52977;44.816;20.538;2022-07-29T04:00:13;99639.03;;;24.02;88.36
66176;BME280;52977;44.816;20.538;2022-07-29T04:02:41;99602.34;;;23.69;88.18
66176;BME280;52977;44.816;20.538;2022-07-29T04:05:15;99636.25;;;24.02;88.26
66176;BME280;52977;44.816;20.538;2022-07-29T04:07:44;99641.88;;;23.99;88.30
66176;BME280;52977;44.816;20.538;2022-07-29T04:10:10;99637.44;;;24.01;88.09
66176;BME280;52977;44.816;20.538;2022-07-29T04:12:35;99622.47;;;23.88;88.22
66176;BME280;52977;44.816;20.538;2022-07-29T04:15:04;99643.94;;;23.91;88.66
66176;BME280;52977;44.816;20.538;2022-07-29T04:17:30;99654.00;;;23.78;90.05
66176;BME280;52977;44.816;20.538;2022-07-29T04:19:56;99620.63;;;23.74;89.15
66176;BME280;52977;44.816;20.538;2022-07-29T04:22:21;99640.81;;;23.82;89.55
66176;BME280;52977;44.816;20.538;2022-07-29T04:24:47;99649.84;;;23.97;89.47
66176;BME280;52977;44.816;20.538;2022-07-29T04:27:13;99640.00;;;23.85;90.79
66176;BME280;52977;44.816;20.538;2022-07-29T04:29:38;99642.50;;;23.76;93.59
66176;BME280;52977;44.816;20.538;2022-07-29T04:32:04;99659.63;;;23.74;94.50
66176;BME280;52977;44.816;20.538;2022-07-29T04:34:30;99652.38;;;23.80;94.31
66176;BME280;52977;44.816;20.538;2022-07-29T04:36:56;99635.84;;;23.62;95.37
66176;BME280;52977;44.816;20.538;2022-07-29T04:39:22;99603.00;;;23.43;95.58
66176;BME280;52977;44.816;20.538;2022-07-29T04:41:47;99651.75;;;23.65;95.38
66176;BME280;52977;44.816;20.538;2022-07-29T04:44:13;99662.75;;;23.80;94.89
66176;BME280;52977;44.816;20.538;2022-07-29T04:46:39;99663.09;;;23.85;94.70
66176;BME280;52977;44.816;20.538;2022-07-29T04:49:04;99667.44;;;23.90;94.06
66176;BME280;52977;44.816;20.538;2022-07-29T04:51:30;99659.94;;;23.83;93.86
66176;BME280;52977;44.816;20.538;2022-07-29T04:53:56;99669.78;;;23.95;93.31
66176;BME280;52977;44.816;20.538;2022-07-29T04:56:22;99653.94;;;23.85;93.60
66176;BME280;52977;44.816;20.538;2022-07-29T04:58:47;99668.94;;;23.98;93.22
66176;BME280;52977;44.816;20.538;2022-07-29T05:01:16;99670.91;;;24.01;92.98
66176;BME280;52977;44.816;20.538;2022-07-29T05:03:42;99651.03;;;23.99;93.05
66176;BME280;52977;44.816;20.538;2022-07-29T05:06:08;99649.44;;;23.98;93.07
66176;BME280;52977;44.816;20.538;2022-07-29T05:08:33;99645.81;;;24.01;93.10
66176;BME280;52977;44.816;20.538;2022-07-29T05:10:59;99657.44;;;23.96;93.66
66176;BME280;52977;44.816;20.538;2022-07-29T05:13:24;99601.91;;;23.33;94.92
66176;BME280;52977;44.816;20.538;2022-07-29T05:15:50;99661.56;;;23.81;94.75
66176;BME280;52977;44.816;20.538;2022-07-29T05:18:15;99657.59;;;23.78;94.23
66176;BME280;52977;44.816;20.538;2022-07-29T05:20:41;99666.06;;;23.67;95.43
66176;BME280;52977;44.816;20.538;2022-07-29T05:23:07;99673.03;;;23.86;93.46
66176;BME280;52977;44.816;20.538;2022-07-29T05:25:33;99640.59;;;23.65;94.21
66176;BME280;52977;44.816;20.538;2022-07-29T05:27:58;99672.56;;;23.95;93.60
66176;BME280;52977;44.816;20.538;2022-07-29T05:30:24;99550.72;;;23.19;93.83
66176;BME280;52977;44.816;20.538;2022-07-29T05:32:50;99543.94;;;23.20;93.77
66176;BME280;52977;44.816;20.538;2022-07-29T05:35:16;99673.63;;;24.09;93.67
66176;BME280;52977;44.816;20.538;2022-07-29T05:37:41;99652.28;;;23.95;94.14
66176;BME280;52977;44.816;20.538;2022-07-29T05:40:08;99661.34;;;24.02;93.89
66176;BME280;52977;44.816;20.538;2022-07-29T05:42:34;99676.03;;;24.06;95.00
66176;BME280;52977;44.816;20.538;2022-07-29T05:45:06;99681.50;;;24.17;93.69
66176;BME280;52977;44.816;20.538;2022-07-29T05:47:32;99663.25;;;24.09;93.49
66176;BME280;52977;44.816;20.538;2022-07-29T05:49:58;99689.69;;;24.32;93.14
66176;BME280;52977;44.816;20.538;2022-07-29T05:52:23;99686.44;;;24.37;92.40
66176;BME280;52977;44.816;20.538;2022-07-29T05:54:52;99686.81;;;24.39;92.28
66176;BME280;52977;44.816;20.538;2022-07-29T05:57:18;99682.91;;;24.33;93.08
66176;BME280;52977;44.816;20.538;2022-07-29T05:59:44;99680.44;;;24.38;92.19
66176;BME280;52977;44.816;20.538;2022-07-29T06:02:10;99682.06;;;24.36;92.36
66176;BME280;52977;44.816;20.538;2022-07-29T06:04:36;99682.03;;;24.39;91.81
66176;BME280;52977;44.816;20.538;2022-07-29T06:07:05;99687.56;;;24.43;90.86
66176;BME280;52977;44.816;20.538;2022-07-29T06:09:31;99651.50;;;24.25;90.13
66176;BME280;52977;44.816;20.538;2022-07-29T06:11:57;99675.53;;;24.50;90.10
66176;BME280;52977;44.816;20.538;2022-07-29T06:14:24;99686.66;;;24.53;90.15
66176;BME280;52977;44.816;20.538;2022-07-29T06:16:49;99689.03;;;24.55;90.46
66176;BME280;52977;44.816;20.538;2022-07-29T06:19:15;99684.34;;;24.45;90.75
66176;BME280;52977;44.816;20.538;2022-07-29T06:21:42;99677.84;;;24.55;89.48
66176;BME280;52977;44.816;20.538;2022-07-29T06:24:10;99682.19;;;24.60;89.69
66176;BME280;52977;44.816;20.538;2022-07-29T06:26:36;99676.28;;;24.54;90.11
66176;BME280;52977;44.816;20.538;2022-07-29T06:29:01;99623.81;;;24.11;89.57
66176;BME280;52977;44.816;20.538;2022-07-29T06:31:27;99685.59;;;24.74;89.46
66176;BME280;52977;44.816;20.538;2022-07-29T06:33:52;99687.97;;;24.76;89.48
66176;BME280;52977;44.816;20.538;2022-07-29T06:36:18;99678.28;;;24.84;88.88
66176;BME280;52977;44.816;20.538;2022-07-29T06:38:44;99674.69;;;24.84;88.68
66176;BME280;52977;44.816;20.538;2022-07-29T06:41:09;99638.72;;;24.62;88.98
66176;BME280;52977;44.816;20.538;2022-07-29T06:43:39;99669.38;;;24.93;87.49
66176;BME280;52977;44.816;20.538;2022-07-29T06:46:08;99685.22;;;25.03;86.88
66176;BME280;52977;44.816;20.538;2022-07-29T06:48:35;99680.31;;;25.07;87.21
66176;BME280;52977;44.816;20.538;2022-07-29T06:51:04;99685.81;;;25.15;85.98
66176;BME280;52977;44.816;20.538;2022-07-29T06:53:31;99677.50;;;25.11;85.31
66176;BME280;52977;44.816;20.538;2022-07-29T06:55:58;99676.13;;;25.23;84.90
66176;BME280;52977;44.816;20.538;2022-07-29T06:58:27;99640.94;;;25.02;84.29
66176;BME280;52977;44.816;20.538;2022-07-29T07:00:57;99677.22;;;25.29;84.22
66176;BME280;52977;44.816;20.538;2022-07-29T07:03:23;99674.84;;;25.28;84.27
66176;BME280;52977;44.816;20.538;2022-07-29T07:05:48;99685.59;;;25.33;85.29
66176;BME280;52977;44.816;20.538;2022-07-29T07:08:14;99668.00;;;25.32;84.50
66176;BME280;52977;44.816;20.538;2022-07-29T07:10:42;99658.44;;;25.33;83.73
66176;BME280;52977;44.816;20.538;2022-07-29T07:13:08;99654.53;;;25.27;83.18
66176;BME280;52977;44.816;20.538;2022-07-29T07:15:35;99685.25;;;25.51;82.21
66176;BME280;52977;44.816;20.538;2022-07-29T07:18:02;99681.63;;;25.54;81.93
66176;BME280;52977;44.816;20.538;2022-07-29T07:20:27;99653.91;;;25.39;82.04
66176;BME280;52977;44.816;20.538;2022-07-29T07:22:53;99673.13;;;25.61;81.98
66176;BME280;52977;44.816;20.538;2022-07-29T07:25:19;99638.28;;;25.46;81.25
66176;BME280;52977;44.816;20.538;2022-07-29T07:27:45;99682.09;;;25.72;80.14
66176;BME280;52977;44.816;20.538;2022-07-29T07:30:12;99646.81;;;25.58;80.14
66176;BME280;52977;44.816;20.538;2022-07-29T07:32:37;99600.97;;;25.32;81.23
66176;BME280;52977;44.816;20.538;2022-07-29T07:35:05;99676.69;;;25.85;80.76
66176;BME280;52977;44.816;20.538;2022-07-29T07:37:31;99676.97;;;25.91;80.40
66176;BME280;52977;44.816;20.538;2022-07-29T07:39:57;99680.88;;;25.97;79.99
66176;BME280;52977;44.816;20.538;2022-07-29T07:42:23;99688.41;;;26.00;80.02
66176;BME280;52977;44.816;20.538;2022-07-29T07:44:49;99604.56;;;25.56;79.45
66176;BME280;52977;44.816;20.538;2022-07-29T07:47:15;99685.72;;;26.17;78.84
66176;BME280;52977;44.816;20.538;2022-07-29T07:49:48;99679.59;;;26.22;79.46
66176;BME280;52977;44.816;20.538;2022-07-29T07:52:15;99688.28;;;26.27;78.54
66176;BME280;52977;44.816;20.538;2022-07-29T07:54:41;99686.72;;;26.26;77.99
66176;BME280;52977;44.816;20.538;2022-07-29T07:57:08;99688.38;;;26.24;77.20
66176;BME280;52977;44.816;20.538;2022-07-29T07:59:34;99688.81;;;26.22;77.21
66176;BME280;52977;44.816;20.538;2022-07-29T08:02:00;99688.44;;;26.20;77.33
66176;BME280;52977;44.816;20.538;2022-07-29T08:04:26;99660.41;;;26.04;78.48
66176;BME280;52977;44.816;20.538;2022-07-29T08:06:52;99677.19;;;26.04;78.45
66176;BME280;52977;44.816;20.538;2022-07-29T08:09:20;99657.06;;;25.89;78.90
66176;BME280;52977;44.816;20.538;2022-07-29T08:11:46;99636.47;;;25.79;78.70
66176;BME280;52977;44.816;20.538;2022-07-29T08:14:12;99665.13;;;26.07;78.24
66176;BME280;52977;44.816;20.538;2022-07-29T08:16:42;99693.25;;;26.20;77.75
66176;BME280;52977;44.816;20.538;2022-07-29T08:19:08;99695.13;;;26.26;77.85
66176;BME280;52977;44.816;20.538;2022-07-29T08:21:34;99690.38;;;26.23;77.20
66176;BME280;52977;44.816;20.538;2022-07-29T08:24:02;99673.59;;;26.03;77.33
66176;BME280;52977;44.816;20.538;2022-07-29T08:26:46;99696.66;;;26.27;77.08
66176;BME280;52977;44.816;20.538;2022-07-29T08:29:12;99664.31;;;26.06;77.00
66176;BME280;52977;44.816;20.538;2022-07-29T08:31:38;99693.19;;;26.23;77.10
66176;BME280;52977;44.816;20.538;2022-07-29T08:34:05;99687.50;;;26.27;77.57
66176;BME280;52977;44.816;20.538;2022-07-29T08:36:31;99683.84;;;26.30;77.76
66176;BME280;52977;44.816;20.538;2022-07-29T08:38:57;99671.66;;;26.40;78.46
66176;BME280;52977;44.816;20.538;2022-07-29T08:41:23;99685.19;;;26.62;75.91
66176;BME280;52977;44.816;20.538;2022-07-29T08:43:49;99674.91;;;26.55;75.81
66176;BME280;52977;44.816;20.538;2022-07-29T08:46:15;99684.69;;;26.67;74.94
66176;BME280;52977;44.816;20.538;2022-07-29T08:48:42;99697.09;;;26.66;75.67
66176;BME280;52977;44.816;20.538;2022-07-29T08:51:08;99690.28;;;26.67;75.29
66176;BME280;52977;44.816;20.538;2022-07-29T08:53:34;99684.69;;;26.67;75.27
66176;BME280;52977;44.816;20.538;2022-07-29T08:56:00;99655.50;;;26.48;76.31
66176;BME280;52977;44.816;20.538;2022-07-29T08:58:31;99656.13;;;26.56;77.25
66176;BME280;52977;44.816;20.538;2022-07-29T09:00:57;99664.19;;;26.74;77.53
66176;BME280;52977;44.816;20.538;2022-07-29T09:03:32;99683.81;;;26.90;76.15
66176;BME280;52977;44.816;20.538;2022-07-29T09:06:00;99655.16;;;26.83;76.45
66176;BME280;52977;44.816;20.538;2022-07-29T09:08:27;99666.56;;;26.92;75.40
66176;BME280;52977;44.816;20.538;2022-07-29T09:10:54;99679.88;;;27.04;75.41
66176;BME280;52977;44.816;20.538;2022-07-29T09:13:21;99680.00;;;27.17;76.08
66176;BME280;52977;44.816;20.538;2022-07-29T09:15:48;99670.34;;;27.18;73.81
66176;BME280;52977;44.816;20.538;2022-07-29T09:21:00;99683.31;;;27.28;73.90
66176;BME280;52977;44.816;20.538;2022-07-29T09:24:19;99681.25;;;27.49;72.98
66176;BME280;52977;44.816;20.538;2022-07-29T09:26:45;99681.13;;;27.53;72.60
66176;BME280;52977;44.816;20.538;2022-07-29T09:29:18;99678.25;;;27.56;72.39
66176;BME280;52977;44.816;20.538;2022-07-29T09:31:46;99670.81;;;27.50;71.23
66176;BME280;52977;44.816;20.538;2022-07-29T09:34:14;99677.13;;;27.54;70.89
66176;BME280;52977;44.816;20.538;2022-07-29T09:36:47;99660.72;;;27.52;72.14
66176;BME280;52977;44.816;20.538;2022-07-29T09:39:15;99667.63;;;27.64;71.70
66176;BME280;52977;44.816;20.538;2022-07-29T09:41:48;99667.44;;;27.71;70.88
66176;BME280;52977;44.816;20.538;2022-07-29T09:44:18;99662.78;;;27.81;70.79
66176;BME280;52977;44.816;20.538;2022-07-29T09:46:59;99660.25;;;27.87;69.54
66176;BME280;52977;44.816;20.538;2022-07-29T09:49:35;99638.88;;;27.76;69.13
66176;BME280;52977;44.816;20.538;2022-07-29T09:52:09;99659.09;;;27.84;68.63
66176;BME280;52977;44.816;20.538;2022-07-29T09:54:37;99651.81;;;27.87;68.99
66176;BME280;52977;44.816;20.538;2022-07-29T09:57:07;99656.78;;;27.95;69.13
66176;BME280;52977;44.816;20.538;2022-07-29T09:59:35;99648.66;;;28.01;69.16
66176;BME280;52977;44.816;20.538;2022-07-29T10:02:00;99635.50;;;27.98;68.08
66176;BME280;52977;44.816;20.538;2022-07-29T10:04:37;99649.63;;;28.37;66.67
66176;BME280;52977;44.816;20.538;2022-07-29T10:07:04;99651.91;;;28.42;65.72
66176;BME280;52977;44.816;20.538;2022-07-29T10:09:31;99644.00;;;28.37;65.60
66176;BME280;52977;44.816;20.538;2022-07-29T10:14:33;99632.69;;;28.40;65.33
66176;BME280;52977;44.816;20.538;2022-07-29T10:17:00;99635.28;;;28.47;66.02
66176;BME280;52977;44.816;20.538;2022-07-29T10:19:28;99614.50;;;28.45;65.34
66176;BME280;52977;44.816;20.538;2022-07-29T10:21:56;99623.59;;;28.62;64.13
66176;BME280;52977;44.816;20.538;2022-07-29T10:24:24;99628.03;;;28.63;64.09
66176;BME280;52977;44.816;20.538;2022-07-29T10:26:50;99628.03;;;28.63;63.98
66176;BME280;52977;44.816;20.538;2022-07-29T10:29:16;99627.34;;;28.72;63.84
66176;BME280;52977;44.816;20.538;2022-07-29T10:31:53;99603.56;;;28.63;62.61
66176;BME280;52977;44.816;20.538;2022-07-29T10:34:57;99616.00;;;28.75;62.92
66176;BME280;52977;44.816;20.538;2022-07-29T10:40:11;99611.28;;;28.98;63.63
66176;BME280;52977;44.816;20.538;2022-07-29T10:43:14;99588.72;;;28.89;62.74
66176;BME280;52977;44.816;20.538;2022-07-29T10:45:44;99606.69;;;29.04;62.06
66176;BME280;52977;44.816;20.538;2022-07-29T10:48:10;99534.16;;;28.64;63.64
66176;BME280;52977;44.816;20.538;2022-07-29T10:51:11;99594.41;;;29.24;62.65
66176;BME280;52977;44.816;20.538;2022-07-29T10:53:50;99597.53;;;29.26;62.40
66176;BME280;52977;44.816;20.538;2022-07-29T10:56:27;99606.31;;;29.28;61.90
66176;BME280;52977;44.816;20.538;2022-07-29T11:01:43;99573.03;;;29.13;61.48
66176;BME280;52977;44.816;20.538;2022-07-29T11:04:09;99588.56;;;29.18;61.65
66176;BME280;52977;44.816;20.538;2022-07-29T11:09:31;99555.31;;;29.04;61.82
66176;BME280;52977;44.816;20.538;2022-07-29T11:11:57;99574.94;;;29.29;61.28
66176;BME280;52977;44.816;20.538;2022-07-29T11:17:17;99573.78;;;29.40;59.73
66176;BME280;52977;44.816;20.538;2022-07-29T11:19:43;99558.41;;;29.19;59.67
66176;BME280;52977;44.816;20.538;2022-07-29T11:22:10;99568.47;;;29.07;60.61
66176;BME280;52977;44.816;20.538;2022-07-29T11:24:37;99572.50;;;29.06;60.84
66176;BME280;52977;44.816;20.538;2022-07-29T11:27:17;99545.44;;;28.99;60.63
66176;BME280;52977;44.816;20.538;2022-07-29T11:29:54;99563.94;;;29.22;60.53
66176;BME280;52977;44.816;20.538;2022-07-29T11:32:21;99548.31;;;29.21;60.56
66176;BME280;52977;44.816;20.538;2022-07-29T11:34:48;99562.28;;;29.47;59.21
66176;BME280;52977;44.816;20.538;2022-07-29T11:37:15;99558.31;;;29.57;58.72
66176;BME280;52977;44.816;20.538;2022-07-29T11:47:25;99553.88;;;30.13;56.58
66176;BME280;52977;44.816;20.538;2022-07-29T11:49:51;99550.22;;;30.04;55.71
66176;BME280;52977;44.816;20.538;2022-07-29T11:52:18;99541.97;;;30.09;56.27
66176;BME280;52977;44.816;20.538;2022-07-29T11:54:44;99551.88;;;30.23;55.79
66176;BME280;52977;44.816;20.538;2022-07-29T11:57:12;99554.28;;;30.34;55.10
66176;BME280;52977;44.816;20.538;2022-07-29T11:59:42;99553.75;;;30.48;54.44
66176;BME280;52977;44.816;20.538;2022-07-29T12:02:08;99474.72;;;30.02;54.40
66176;BME280;52977;44.816;20.538;2022-07-29T12:04:50;99555.00;;;30.25;54.58
66176;BME280;52977;44.816;20.538;2022-07-29T12:07:16;99553.63;;;29.98;55.50
66176;BME280;52977;44.816;20.538;2022-07-29T12:09:52;99551.84;;;29.92;55.68
66176;BME280;52977;44.816;20.538;2022-07-29T12:12:19;99553.88;;;30.13;56.14
66176;BME280;52977;44.816;20.538;2022-07-29T12:14:45;99544.84;;;30.28;56.05
66176;BME280;52977;44.816;20.538;2022-07-29T12:17:32;99545.66;;;30.28;55.57
66176;BME280;52977;44.816;20.538;2022-07-29T12:20:00;99545.78;;;30.25;55.78
66176;BME280;52977;44.816;20.538;2022-07-29T12:22:33;99554.88;;;30.29;55.99
66176;BME280;52977;44.816;20.538;2022-07-29T12:25:09;99542.22;;;30.33;55.26
66176;BME280;52977;44.816;20.538;2022-07-29T12:27:35;99547.81;;;30.46;54.58
66176;BME280;52977;44.816;20.538;2022-07-29T12:30:10;99525.84;;;30.41;54.44
66176;BME280;52977;44.816;20.538;2022-07-29T12:32:37;99542.53;;;30.58;54.56
66176;BME280;52977;44.816;20.538;2022-07-29T12:35:05;99548.94;;;30.58;54.52
66176;BME280;52977;44.816;20.538;2022-07-29T12:37:36;99539.69;;;30.58;54.99
66176;BME280;52977;44.816;20.538;2022-07-29T12:40:06;99539.06;;;30.54;54.35
66176;BME280;52977;44.816;20.538;2022-07-29T12:42:32;99529.34;;;30.45;54.57
66176;BME280;52977;44.816;20.538;2022-07-29T12:44:59;99526.69;;;30.51;54.63
66176;BME280;52977;44.816;20.538;2022-07-29T12:47:24;99529.38;;;30.23;53.99
66176;BME280;52977;44.816;20.538;2022-07-29T12:49:50;99528.75;;;29.97;54.01
66176;BME280;52977;44.816;20.538;2022-07-29T12:52:26;99524.38;;;29.74;55.24
66176;BME280;52977;44.816;20.538;2022-07-29T12:54:52;99520.97;;;29.57;56.07
66176;BME280;52977;44.816;20.538;2022-07-29T12:57:17;99515.88;;;29.42;56.74
66176;BME280;52977;44.816;20.538;2022-07-29T12:59:43;99495.41;;;29.42;56.56
66176;BME280;52977;44.816;20.538;2022-07-29T13:02:21;99525.22;;;29.83;56.15
66176;BME280;52977;44.816;20.538;2022-07-29T13:04:58;99514.59;;;30.10;54.79
66176;BME280;52977;44.816;20.538;2022-07-29T13:07:26;99501.22;;;30.23;53.66
66176;BME280;52977;44.816;20.538;2022-07-29T13:09:53;99492.69;;;30.05;54.29
66176;BME280;52977;44.816;20.538;2022-07-29T13:12:19;99499.75;;;30.09;54.88
66176;BME280;52977;44.816;20.538;2022-07-29T13:14:49;99457.59;;;29.65;55.07
66176;BME280;52977;44.816;20.538;2022-07-29T13:24:56;99515.44;;;30.51;53.25
66176;BME280;52977;44.816;20.538;2022-07-29T13:27:28;99490.13;;;30.60;52.17
66176;BME280;52977;44.816;20.538;2022-07-29T13:29:56;99463.03;;;30.54;51.79
66176;BME280;52977;44.816;20.538;2022-07-29T13:32:23;99493.19;;;30.53;52.29